»·PEaware :: AAL22 KDFW-SCEL

AAL22 :: KDFW-SCEL

FLIGHT INFORMATION

Flight Status: Arrived
Operator:
American Airlines
More flights by this operator :: More flights under this callsign
Pilot: Kyle K. (11122)
Aircraft: BOEING 767-300
(B763)
More flights by this aircraft type
Origin: KDFW Dallas-Ft Worth Intl
United States
Destination: SCEL Arturo Merino Benitez Intl
Chile
More flights between these airports :: More routes between these airports
Route: DARTZ7 TNV VUH L207 MUSYL PEGLG L208 DUTNA UL208 MID UB753 BZE UZ512 LIB/N0464F350 UZ512 LIXAS UL203 ATENO UM542 TAL UV1 KALAR/N0460F370 UV1 LIM UL302 TOY SIMOK SIMO2B
File this flight plan on PilotEdge
Remarks:
Altitude:
(Current/Filed)
33,000ft
Speed:
(Current/Filed)
455kts
Departed: 04-Feb-18 12:14 PM
Arrived: 04-Feb-18 09:27 PM
Distance/Time
Traveled:
4245nm/9:13
Distance/Time
To Go:
Arrived

Flight Plot

Page will automatically refresh every two minutes.

Flight plan parsing failed; only flown route is shown


Map Options




Map Legend


Flown Route
Filed Route
Departure Airport
Arrival Airport
Navaid (VOR, NDB)
Fix

Horizontal Profiles

Position Reports

Time Latitude Longitude Heading Altitude Ground
Speed
04-Feb-18 12:10 32.897669 -97.045726 91 602ft 0kts
04-Feb-18 12:11 32.897679 -97.046250 91 603ft 2kts
04-Feb-18 12:12 32.897474 -97.046689 7 605ft 2kts
04-Feb-18 12:13 32.897359 -97.046696 0 605ft 0kts
04-Feb-18 12:14 32.897366 -97.046696 0 605ft 0kts
04-Feb-18 12:15 32.898805 -97.047969 305 608ft 5kts
04-Feb-18 12:16 32.896406 -97.048858 178 605ft 28kts
04-Feb-18 12:17 32.887353 -97.048916 181 583ft 35kts
04-Feb-18 12:18 32.879827 -97.048970 178 572ft 11kts
04-Feb-18 12:19 32.879083 -97.050576 269 569ft 8kts
04-Feb-18 12:21 32.882607 -97.050897 1 574ft 77kts
04-Feb-18 12:22 32.920879 -97.051109 1 1307ft 201kts
04-Feb-18 12:23 32.969459 -97.063478 341 3524ft 207kts
04-Feb-18 12:24 33.011443 -97.107743 272 5457ft 258kts
04-Feb-18 12:25 33.005276 -97.186334 264 8375ft 261kts
04-Feb-18 12:26 32.954958 -97.231948 176 10022ft 291kts
04-Feb-18 12:27 32.876275 -97.239727 200 10968ft 362kts
04-Feb-18 12:28 32.786740 -97.266129 175 13850ft 382kts
04-Feb-18 12:29 32.701943 -97.209208 143 16345ft 406kts
04-Feb-18 12:30 32.616147 -97.126840 144 18786ft 424kts
04-Feb-18 12:31 32.524881 -97.039308 145 21038ft 443kts
04-Feb-18 12:32 32.428232 -96.946864 145 23112ft 460kts
04-Feb-18 12:33 32.328737 -96.851977 146 25019ft 475kts
04-Feb-18 12:34 32.212325 -96.783136 167 26757ft 472kts
04-Feb-18 12:35 32.087243 -96.733761 168 28393ft 484kts
04-Feb-18 12:36 31.958578 -96.683759 168 29920ft 496kts
04-Feb-18 12:37 31.834770 -96.635802 168 31722ft 493kts
04-Feb-18 12:38 31.708367 -96.587021 168 33105ft 494kts
04-Feb-18 12:39 31.581256 -96.538087 168 33097ft 487kts
04-Feb-18 12:40 31.453992 -96.489786 169 33097ft 488kts
04-Feb-18 12:41 31.325950 -96.441827 169 33096ft 488kts
04-Feb-18 12:42 31.198178 -96.394110 169 33085ft 490kts
04-Feb-18 12:42 31.090868 -96.354140 169 33088ft 487kts
04-Feb-18 12:44 30.942068 -96.298830 171 33060ft 483kts
04-Feb-18 12:45 30.821375 -96.254144 172 33069ft 477kts
04-Feb-18 12:46 30.697408 -96.208387 172 33067ft 479kts
04-Feb-18 12:46 30.593569 -96.170126 172 33062ft 478kts
04-Feb-18 12:48 30.447172 -96.116337 172 33060ft 478kts
04-Feb-18 12:48 30.342588 -96.077992 171 33062ft 478kts
04-Feb-18 12:49 30.230016 -95.989339 142 33068ft 520kts
04-Feb-18 12:50 30.130421 -95.871151 142 33054ft 518kts
04-Feb-18 12:51 30.031252 -95.754234 142 33060ft 518kts
04-Feb-18 12:52 29.936581 -95.642974 142 33052ft 520kts
04-Feb-18 12:53 29.848247 -95.539436 142 33057ft 519kts
04-Feb-18 12:54 29.762046 -95.438680 142 33050ft 519kts
04-Feb-18 12:55 29.672135 -95.333868 143 33034ft 518kts
04-Feb-18 12:56 29.576988 -95.223254 142 33039ft 518kts
04-Feb-18 12:57 29.477459 -95.107878 143 33063ft 518kts
04-Feb-18 12:58 29.376536 -94.991240 143 33062ft 520kts
04-Feb-18 12:59 29.273728 -94.875548 151 33048ft 511kts
04-Feb-18 13:00 29.155974 -94.790937 160 33057ft 499kts
04-Feb-18 13:01 29.036843 -94.709963 160 33060ft 498kts
04-Feb-18 13:02 28.918336 -94.629841 160 33059ft 495kts
04-Feb-18 13:03 28.800303 -94.550285 160 33066ft 496kts
04-Feb-18 13:04 28.681922 -94.470692 160 33067ft 496kts
04-Feb-18 13:05 28.563567 -94.391333 160 33067ft 495kts
04-Feb-18 13:06 28.445542 -94.312388 160 33046ft 494kts
04-Feb-18 13:07 28.327364 -94.233567 160 33048ft 494kts
04-Feb-18 13:08 28.208887 -94.154752 160 33051ft 495kts
04-Feb-18 13:09 28.097420 -94.059287 150 33051ft 511kts
04-Feb-18 13:10 27.988784 -93.955839 150 33053ft 510kts
04-Feb-18 13:11 27.880666 -93.853039 150 33059ft 510kts
04-Feb-18 13:12 27.772309 -93.750284 150 33061ft 510kts
04-Feb-18 13:13 27.663649 -93.647518 150 33063ft 510kts
04-Feb-18 13:14 27.555079 -93.545108 150 33065ft 510kts
04-Feb-18 13:15 27.446381 -93.442854 150 33066ft 510kts
04-Feb-18 13:16 27.337849 -93.341026 150 33058ft 510kts
04-Feb-18 13:17 27.229418 -93.239564 150 33048ft 509kts
04-Feb-18 13:18 27.120345 -93.137757 150 33047ft 509kts
04-Feb-18 13:19 27.011772 -93.036710 150 33052ft 509kts
04-Feb-18 13:20 26.903479 -92.936179 148 33052ft 505kts
04-Feb-18 13:21 26.795180 -92.837881 155 33053ft 496kts
04-Feb-18 13:22 26.677609 -92.759452 157 33059ft 493kts
04-Feb-18 13:23 26.560028 -92.680986 157 33060ft 493kts
04-Feb-18 13:24 26.442412 -92.602632 157 33061ft 493kts
04-Feb-18 13:25 26.324788 -92.524458 157 33061ft 493kts
04-Feb-18 13:26 26.207149 -92.446460 157 33063ft 493kts
04-Feb-18 13:27 26.089560 -92.368681 157 33064ft 493kts
04-Feb-18 13:28 25.972115 -92.291185 157 33047ft 492kts
04-Feb-18 13:29 25.854409 -92.213697 157 33053ft 493kts
04-Feb-18 13:30 25.737058 -92.136619 157 33053ft 492kts
04-Feb-18 13:31 25.619435 -92.059546 157 33054ft 492kts
04-Feb-18 13:32 25.501867 -91.982685 157 33055ft 492kts
04-Feb-18 13:33 25.383963 -91.905781 157 33055ft 492kts
04-Feb-18 13:34 25.266169 -91.829124 157 33047ft 492kts
04-Feb-18 13:35 25.148354 -91.752629 157 33039ft 492kts
04-Feb-18 13:36 25.031416 -91.676874 157 33028ft 485kts
04-Feb-18 13:37 24.915952 -91.602243 156 33028ft 480kts
04-Feb-18 13:38 24.800770 -91.527955 156 33034ft 481kts
04-Feb-18 13:39 24.685824 -91.453980 156 33035ft 481kts
04-Feb-18 13:40 24.570419 -91.379867 156 33035ft 481kts
04-Feb-18 13:41 24.453300 -91.311532 163 33027ft 473kts
04-Feb-18 13:42 24.332731 -91.253661 163 33022ft 474kts
04-Feb-18 13:43 24.212528 -91.195624 163 33023ft 474kts
04-Feb-18 13:44 24.091987 -91.137496 163 33023ft 475kts
04-Feb-18 13:45 23.971271 -91.079398 162 33023ft 475kts
04-Feb-18 13:46 23.850850 -91.021561 162 33029ft 475kts
04-Feb-18 13:47 23.730465 -90.963859 162 33029ft 475kts
04-Feb-18 13:48 23.609551 -90.906021 162 33029ft 475kts
04-Feb-18 13:49 23.489062 -90.848500 162 33028ft 475kts
04-Feb-18 13:50 23.368385 -90.791007 162 33028ft 475kts
04-Feb-18 13:51 23.247502 -90.733524 162 33029ft 475kts
04-Feb-18 13:52 23.126560 -90.676120 162 33039ft 478kts
04-Feb-18 13:53 23.005444 -90.618746 162 33039ft 477kts
04-Feb-18 13:54 22.885444 -90.562024 160 33040ft 474kts
04-Feb-18 13:55 22.764987 -90.505164 160 33041ft 474kts
04-Feb-18 13:56 22.644301 -90.448319 160 33041ft 474kts
04-Feb-18 13:57 22.523613 -90.391585 160 33041ft 474kts
04-Feb-18 13:58 22.403433 -90.335217 161 33032ft 474kts
04-Feb-18 13:59 22.282729 -90.278714 161 33033ft 474kts
04-Feb-18 14:00 22.162146 -90.222373 161 33033ft 474kts
04-Feb-18 14:01 22.041852 -90.166272 161 33033ft 474kts
04-Feb-18 14:02 21.921117 -90.110069 161 33033ft 474kts
04-Feb-18 14:03 21.801997 -90.054719 161 33037ft 474kts
04-Feb-18 14:04 21.681961 -89.999051 161 33037ft 474kts
04-Feb-18 14:05 21.561302 -89.943207 161 33037ft 474kts
04-Feb-18 14:06 21.441121 -89.887685 161 33037ft 474kts
04-Feb-18 14:07 21.320783 -89.832191 161 33037ft 474kts
04-Feb-18 14:08 21.200076 -89.776594 160 33037ft 474kts
04-Feb-18 14:09 21.079440 -89.721128 160 33036ft 474kts
04-Feb-18 14:10 20.958347 -89.665553 159 33036ft 476kts
04-Feb-18 14:11 20.838885 -89.616216 161 33039ft 475kts
04-Feb-18 14:12 20.715387 -89.566527 161 33039ft 475kts
04-Feb-18 14:13 20.591895 -89.516903 161 33039ft 475kts
04-Feb-18 14:14 20.468596 -89.467439 161 33039ft 475kts
04-Feb-18 14:15 20.345595 -89.417894 161 33039ft 475kts
04-Feb-18 14:16 20.222011 -89.368193 161 33039ft 475kts
04-Feb-18 14:17 20.099589 -89.319266 162 33034ft 475kts
04-Feb-18 14:18 19.975907 -89.270181 162 33033ft 475kts
04-Feb-18 14:19 19.853251 -89.221581 162 33035ft 475kts
04-Feb-18 14:20 19.730021 -89.172833 162 33010ft 475kts
04-Feb-18 14:21 19.606672 -89.123941 162 33004ft 475kts
04-Feb-18 14:22 19.483194 -89.075031 162 33010ft 475kts
04-Feb-18 14:23 19.359493 -89.026114 162 33017ft 475kts
04-Feb-18 14:24 19.236459 -88.977540 162 33017ft 475kts
04-Feb-18 14:25 19.112637 -88.928732 162 33017ft 475kts
04-Feb-18 14:26 18.989343 -88.880221 161 33017ft 475kts
04-Feb-18 14:27 18.867498 -88.832352 160 33020ft 473kts
04-Feb-18 14:29 18.744240 -88.783980 160 33018ft 474kts
04-Feb-18 14:30 18.620665 -88.735572 160 33019ft 474kts
04-Feb-18 14:31 18.497309 -88.687328 160 33018ft 474kts
04-Feb-18 14:32 18.373966 -88.639159 160 33018ft 474kts
04-Feb-18 14:33 18.250607 -88.591040 160 33018ft 474kts
04-Feb-18 14:34 18.127591 -88.543129 160 33018ft 474kts
04-Feb-18 14:35 18.004298 -88.495181 160 33025ft 474kts
04-Feb-18 14:36 17.881370 -88.447308 160 33037ft 474kts
04-Feb-18 14:37 17.758391 -88.399272 160 33037ft 474kts
04-Feb-18 14:38 17.634925 -88.351110 160 33037ft 474kts
04-Feb-18 14:39 17.513938 -88.304195 161 33036ft 474kts
04-Feb-18 14:40 17.390491 -88.257299 160 33036ft 474kts
04-Feb-18 14:41 17.266737 -88.210340 160 33036ft 474kts
04-Feb-18 14:42 17.143035 -88.163467 160 33035ft 474kts
04-Feb-18 14:43 17.019270 -88.116639 160 33036ft 476kts
04-Feb-18 14:44 16.894965 -88.069667 160 33035ft 477kts
04-Feb-18 14:45 16.771261 -88.022988 160 33036ft 476kts
04-Feb-18 14:46 16.646871 -87.976117 160 33036ft 476kts
04-Feb-18 14:47 16.522599 -87.929356 160 33033ft 476kts
04-Feb-18 14:48 16.398312 -87.882654 160 33025ft 477kts
04-Feb-18 14:49 16.274196 -87.836078 160 33020ft 477kts
04-Feb-18 14:50 16.149874 -87.789488 160 33020ft 477kts
04-Feb-18 14:51 16.025605 -87.742359 160 33020ft 477kts
04-Feb-18 14:51 15.921882 -87.702954 160 33020ft 477kts
04-Feb-18 14:52 15.800803 -87.657009 160 32985ft 469kts
04-Feb-18 14:53 15.679291 -87.610970 160 32995ft 472kts
04-Feb-18 14:55 15.537448 -87.557292 160 32994ft 471kts
04-Feb-18 14:56 15.415263 -87.511115 160 32993ft 471kts
04-Feb-18 14:56 15.313999 -87.472889 160 32993ft 471kts
04-Feb-18 14:57 15.191870 -87.426839 160 32993ft 471kts
04-Feb-18 14:58 15.069498 -87.380754 160 32993ft 471kts
04-Feb-18 14:59 14.947826 -87.334992 161 33009ft 477kts
04-Feb-18 15:00 14.825461 -87.289029 160 33026ft 483kts
04-Feb-18 15:01 14.701486 -87.242508 160 33028ft 482kts
04-Feb-18 15:02 14.576572 -87.195696 160 33079ft 482kts
04-Feb-18 15:03 14.452217 -87.149149 160 33112ft 481kts
04-Feb-18 15:04 14.329899 -87.097857 158 33128ft 482kts
04-Feb-18 15:05 14.207128 -87.045574 158 33128ft 481kts
04-Feb-18 15:06 14.083827 -86.993150 158 33219ft 484kts
04-Feb-18 15:07 13.964149 -86.942322 158 35065ft 477kts
04-Feb-18 15:08 13.844513 -86.891572 158 35120ft 473kts
04-Feb-18 15:09 13.733984 -86.844739 158 35130ft 474kts
04-Feb-18 15:10 13.613826 -86.793876 158 35128ft 474kts
04-Feb-18 15:11 13.493677 -86.743073 158 35128ft 474kts
04-Feb-18 15:12 13.373183 -86.692180 158 35128ft 474kts
04-Feb-18 15:13 13.252355 -86.641200 158 35115ft 474kts
04-Feb-18 15:14 13.131024 -86.590063 158 34928ft 474kts
04-Feb-18 15:15 13.009201 -86.538747 159 34888ft 476kts
04-Feb-18 15:16 12.887821 -86.487706 160 34887ft 476kts
04-Feb-18 15:17 12.765468 -86.436311 160 34889ft 476kts
04-Feb-18 15:18 12.643142 -86.384965 160 34889ft 476kts
04-Feb-18 15:19 12.521482 -86.333951 160 34882ft 476kts
04-Feb-18 15:20 12.399136 -86.282703 160 34883ft 476kts
04-Feb-18 15:21 12.277110 -86.231641 160 34883ft 476kts
04-Feb-18 15:22 12.154705 -86.180472 160 34883ft 476kts
04-Feb-18 15:23 12.032038 -86.130340 161 34883ft 476kts
04-Feb-18 15:24 11.909242 -86.080362 161 34884ft 476kts
04-Feb-18 15:25 11.787211 -86.030740 161 34885ft 476kts
04-Feb-18 15:26 11.664491 -85.980887 161 34885ft 476kts
04-Feb-18 15:27 11.541459 -85.930955 161 34885ft 476kts
04-Feb-18 15:28 11.419071 -85.881331 161 34883ft 476kts
04-Feb-18 15:29 11.296199 -85.831557 161 34869ft 476kts
04-Feb-18 15:30 11.173385 -85.782089 161 34854ft 476kts
04-Feb-18 15:31 11.050201 -85.733016 160 34854ft 476kts
04-Feb-18 15:32 10.927210 -85.682574 161 34856ft 480kts
04-Feb-18 15:33 10.806318 -85.633094 162 34857ft 482kts
04-Feb-18 15:34 10.682582 -85.582486 162 34857ft 481kts
04-Feb-18 15:35 10.557646 -85.535711 168 34860ft 477kts
04-Feb-18 15:36 10.430193 -85.498874 168 34857ft 477kts
04-Feb-18 15:37 10.302979 -85.462084 168 34858ft 477kts
04-Feb-18 15:38 10.175578 -85.425262 168 34858ft 477kts
04-Feb-18 15:39 10.047867 -85.388344 168 34858ft 477kts
04-Feb-18 15:40 9.920658 -85.351601 168 34859ft 477kts
04-Feb-18 15:41 9.793602 -85.314938 168 34851ft 477kts
04-Feb-18 15:42 9.666549 -85.278301 168 34851ft 477kts
04-Feb-18 15:43 9.538757 -85.241480 168 34885ft 477kts
04-Feb-18 15:44 9.411751 -85.204917 168 35001ft 477kts
04-Feb-18 15:45 9.284367 -85.168276 168 35006ft 476kts
04-Feb-18 15:46 9.157076 -85.131692 168 35007ft 476kts
04-Feb-18 15:47 9.029923 -85.095167 169 35007ft 477kts
04-Feb-18 15:48 8.902619 -85.058637 169 35008ft 478kts
04-Feb-18 15:49 8.775057 -85.022055 169 35009ft 477kts
04-Feb-18 15:50 8.647894 -84.985614 169 35009ft 477kts
04-Feb-18 15:51 8.520750 -84.949204 169 35033ft 476kts
04-Feb-18 15:52 8.393608 -84.911810 168 35036ft 478kts
04-Feb-18 15:53 8.266701 -84.873828 168 35037ft 478kts
04-Feb-18 15:54 8.139567 -84.835809 168 35038ft 478kts
04-Feb-18 15:55 8.012252 -84.797761 168 35038ft 478kts
04-Feb-18 15:56 7.885201 -84.759817 168 35039ft 478kts
04-Feb-18 15:57 7.758134 -84.721897 168 35040ft 478kts
04-Feb-18 15:58 7.631010 -84.683981 168 34972ft 478kts
04-Feb-18 15:59 7.503917 -84.646095 168 34812ft 478kts
04-Feb-18 16:00 7.376636 -84.608178 168 34809ft 478kts
04-Feb-18 16:01 7.249484 -84.570320 168 34808ft 478kts
04-Feb-18 16:02 7.121928 -84.532366 168 34809ft 478kts
04-Feb-18 16:03 6.994960 -84.494605 169 34809ft 478kts
04-Feb-18 16:04 6.867592 -84.456750 169 34811ft 479kts
04-Feb-18 16:05 6.740264 -84.418938 169 34811ft 479kts
04-Feb-18 16:06 6.612730 -84.381076 169 34812ft 479kts
04-Feb-18 16:07 6.486072 -84.343493 169 34801ft 479kts
04-Feb-18 16:08 6.358643 -84.305704 169 34800ft 479kts
04-Feb-18 16:09 6.230970 -84.267860 169 34800ft 479kts
04-Feb-18 16:10 6.103767 -84.230177 169 34800ft 479kts
04-Feb-18 16:11 5.976382 -84.192457 169 34800ft 479kts
04-Feb-18 16:12 5.848746 -84.154680 169 34802ft 479kts
04-Feb-18 16:13 5.721135 -84.118882 170 34803ft 478kts
04-Feb-18 16:14 5.593245 -84.083566 170 34803ft 478kts
04-Feb-18 16:15 5.465667 -84.048346 170 34803ft 478kts
04-Feb-18 16:16 5.337703 -84.013035 170 34803ft 478kts
04-Feb-18 16:17 5.209648 -83.977714 170 34804ft 478kts
04-Feb-18 16:18 5.081941 -83.942501 170 34804ft 478kts
04-Feb-18 16:19 4.954606 -83.907403 170 34804ft 475kts
04-Feb-18 16:20 4.827588 -83.872418 170 34806ft 476kts
04-Feb-18 16:21 4.700251 -83.837352 170 34806ft 475kts
04-Feb-18 16:22 4.572870 -83.802287 170 34806ft 475kts
04-Feb-18 16:23 4.445882 -83.767343 170 34807ft 475kts
04-Feb-18 16:24 4.318726 -83.732364 170 34807ft 475kts
04-Feb-18 16:25 4.191315 -83.697328 170 34807ft 475kts
04-Feb-18 16:26 4.064267 -83.662403 170 34807ft 475kts
04-Feb-18 16:27 3.937122 -83.627463 170 34807ft 475kts
04-Feb-18 16:28 3.809827 -83.592498 170 34812ft 475kts
04-Feb-18 16:29 3.682977 -83.557662 170 34849ft 475kts
04-Feb-18 16:30 3.555823 -83.522751 170 34864ft 475kts
04-Feb-18 16:31 3.428371 -83.487769 170 34864ft 475kts
04-Feb-18 16:32 3.301545 -83.452968 170 34865ft 475kts
04-Feb-18 16:33 3.174189 -83.418030 170 34865ft 475kts
04-Feb-18 16:34 3.047211 -83.383205 170 34865ft 475kts
04-Feb-18 16:35 2.920539 -83.348473 170 34863ft 475kts
04-Feb-18 16:36 2.793587 -83.313677 170 34855ft 475kts
04-Feb-18 16:38 2.666839 -83.278941 170 34854ft 475kts
04-Feb-18 16:39 2.539880 -83.244156 170 34855ft 475kts
04-Feb-18 16:40 2.412721 -83.209322 170 34855ft 475kts
04-Feb-18 16:41 2.285604 -83.174507 170 34855ft 475kts
04-Feb-18 16:42 2.158798 -83.139783 170 34855ft 475kts
04-Feb-18 16:43 2.031718 -83.104990 170 34855ft 475kts
04-Feb-18 16:44 1.904642 -83.070203 170 34855ft 475kts
04-Feb-18 16:45 1.777730 -83.035466 170 34858ft 475kts
04-Feb-18 16:46 1.650951 -83.000771 170 34858ft 474kts
04-Feb-18 16:47 1.524331 -82.966124 170 34858ft 473kts
04-Feb-18 16:48 1.397662 -82.930938 168 34858ft 474kts
04-Feb-18 16:49 1.272236 -82.892206 168 34858ft 473kts
04-Feb-18 16:50 1.146427 -82.853471 168 34858ft 473kts
04-Feb-18 16:51 1.021278 -82.814950 168 34858ft 471kts
04-Feb-18 16:52 0.898993 -82.777309 168 34858ft 470kts
04-Feb-18 16:53 0.774311 -82.738937 168 34861ft 470kts
04-Feb-18 16:54 0.649839 -82.700631 168 34861ft 470kts
04-Feb-18 16:55 0.525288 -82.662301 168 34861ft 470kts
04-Feb-18 16:56 0.400661 -82.623950 168 34861ft 470kts
04-Feb-18 16:57 0.276012 -82.585593 168 34861ft 470kts
04-Feb-18 16:58 0.151532 -82.547289 168 34861ft 470kts
04-Feb-18 16:59 0.026785 -82.508903 168 34861ft 470kts
04-Feb-18 17:00 -0.097943 -82.470522 168 34861ft 470kts
04-Feb-18 17:01 -0.221868 -82.432402 168 34865ft 470kts
04-Feb-18 17:01 -0.325852 -82.400415 168 34865ft 470kts
04-Feb-18 17:02 -0.450404 -82.362100 168 34865ft 470kts
04-Feb-18 17:04 -0.594801 -82.317678 168 34854ft 470kts
04-Feb-18 17:05 -0.719041 -82.279457 168 34854ft 470kts
04-Feb-18 17:05 -0.823132 -82.247433 168 34854ft 470kts
04-Feb-18 17:06 -0.947603 -82.209138 168 34854ft 470kts
04-Feb-18 17:07 -1.072263 -82.170804 167 34854ft 469kts
04-Feb-18 17:08 -1.196620 -82.132534 166 34858ft 469kts
04-Feb-18 17:09 -1.320977 -82.094268 166 34858ft 469kts
04-Feb-18 17:10 -1.445289 -82.056016 166 34857ft 469kts
04-Feb-18 17:11 -1.569461 -82.017803 166 34857ft 469kts
04-Feb-18 17:12 -1.693882 -81.979509 166 34857ft 469kts
04-Feb-18 17:13 -1.818336 -81.941199 166 34857ft 469kts
04-Feb-18 17:14 -1.942801 -81.902879 166 34857ft 469kts
04-Feb-18 17:15 -2.067261 -81.865812 171 34854ft 466kts
04-Feb-18 17:16 -2.193611 -81.839285 171 34859ft 466kts
04-Feb-18 17:17 -2.320215 -81.812461 171 34860ft 466kts
04-Feb-18 17:18 -2.446639 -81.785657 171 34860ft 466kts
04-Feb-18 17:19 -2.573427 -81.758769 171 34859ft 466kts
04-Feb-18 17:20 -2.700063 -81.731907 171 34859ft 466kts
04-Feb-18 17:21 -2.826409 -81.705101 171 34859ft 466kts
04-Feb-18 17:22 -2.953235 -81.678201 171 34859ft 467kts
04-Feb-18 17:23 -3.079838 -81.651325 170 34859ft 468kts
04-Feb-18 17:24 -3.206615 -81.624405 170 34860ft 468kts
04-Feb-18 17:25 -3.333886 -81.597377 170 34860ft 468kts
04-Feb-18 17:26 -3.460147 -81.566598 167 34874ft 470kts
04-Feb-18 17:27 -3.585403 -81.531427 167 34882ft 469kts
04-Feb-18 17:28 -3.710696 -81.496322 167 34887ft 469kts
04-Feb-18 17:29 -3.836057 -81.461196 167 34887ft 469kts
04-Feb-18 17:30 -3.961476 -81.426042 167 34887ft 469kts
04-Feb-18 17:31 -4.086777 -81.390911 167 34887ft 469kts
04-Feb-18 17:32 -4.212195 -81.355745 167 34889ft 469kts
04-Feb-18 17:33 -4.336872 -81.320764 167 34884ft 469kts
04-Feb-18 17:34 -4.462341 -81.285552 167 34883ft 469kts
04-Feb-18 17:35 -4.584385 -81.240594 148 34885ft 476kts
04-Feb-18 17:36 -4.681721 -81.149728 137 34884ft 481kts
04-Feb-18 17:37 -4.775762 -81.055082 137 34884ft 480kts
04-Feb-18 17:38 -4.869637 -80.960282 136 34884ft 479kts
04-Feb-18 17:39 -4.963444 -80.865490 136 34883ft 478kts
04-Feb-18 17:40 -5.057263 -80.770654 135 34886ft 483kts
04-Feb-18 17:41 -5.151299 -80.675538 134 34884ft 480kts
04-Feb-18 17:42 -5.254877 -80.593318 151 34894ft 481kts
04-Feb-18 17:43 -5.372503 -80.530542 152 34884ft 480kts
04-Feb-18 17:44 -5.490486 -80.468222 152 34886ft 480kts
04-Feb-18 17:45 -5.608806 -80.405752 152 34885ft 480kts
04-Feb-18 17:46 -5.726239 -80.343726 152 34884ft 481kts
04-Feb-18 17:47 -5.844270 -80.281355 152 34884ft 481kts
04-Feb-18 17:48 -5.961919 -80.219161 152 34887ft 481kts
04-Feb-18 17:49 -6.079936 -80.156737 152 34885ft 480kts
04-Feb-18 17:50 -6.197355 -80.094596 152 34884ft 481kts
04-Feb-18 17:51 -6.315484 -80.032050 152 34885ft 480kts
04-Feb-18 17:52 -6.433143 -79.969722 152 34885ft 481kts
04-Feb-18 17:53 -6.551166 -79.907169 151 34912ft 481kts
04-Feb-18 17:54 -6.669020 -79.844667 152 34911ft 480kts
04-Feb-18 17:55 -6.787685 -79.782868 152 34913ft 481kts
04-Feb-18 17:56 -6.906209 -79.721932 152 34912ft 481kts
04-Feb-18 17:57 -7.025854 -79.660390 151 34912ft 484kts
04-Feb-18 17:58 -7.144959 -79.599050 151 34908ft 483kts
04-Feb-18 17:59 -7.264474 -79.537485 151 34910ft 484kts
04-Feb-18 18:00 -7.383859 -79.475951 151 34911ft 483kts
04-Feb-18 18:01 -7.503346 -79.414324 151 34912ft 483kts
04-Feb-18 18:02 -7.622699 -79.352727 151 34912ft 483kts
04-Feb-18 18:03 -7.741109 -79.291581 151 34913ft 483kts
04-Feb-18 18:04 -7.860537 -79.229870 151 34913ft 483kts
04-Feb-18 18:05 -7.980039 -79.168082 151 34913ft 483kts
04-Feb-18 18:06 -8.098712 -79.106377 149 34914ft 482kts
04-Feb-18 18:07 -8.214883 -79.041720 149 34910ft 480kts
04-Feb-18 18:08 -8.331386 -78.976948 148 34913ft 479kts
04-Feb-18 18:09 -8.447503 -78.912346 148 34912ft 478kts
04-Feb-18 18:10 -8.564133 -78.847411 148 34909ft 478kts
04-Feb-18 18:11 -8.680167 -78.782770 149 34913ft 479kts
04-Feb-18 18:12 -8.796204 -78.718078 148 34914ft 478kts
04-Feb-18 18:13 -8.912486 -78.653207 148 34914ft 478kts
04-Feb-18 18:14 -9.028845 -78.588244 148 34912ft 480kts
04-Feb-18 18:15 -9.143855 -78.523998 148 34908ft 485kts
04-Feb-18 18:16 -9.265277 -78.464702 151 34907ft 485kts
04-Feb-18 18:17 -9.386787 -78.405650 151 34909ft 486kts
04-Feb-18 18:18 -9.505057 -78.348106 151 34910ft 486kts
04-Feb-18 18:19 -9.626487 -78.288979 151 34913ft 486kts
04-Feb-18 18:20 -9.747777 -78.229872 151 34914ft 485kts
04-Feb-18 18:21 -9.869158 -78.170670 151 34915ft 486kts
04-Feb-18 18:22 -9.990722 -78.111332 151 34920ft 486kts
04-Feb-18 18:23 -10.111592 -78.052284 151 34933ft 486kts
04-Feb-18 18:24 -10.233146 -77.992889 151 34936ft 486kts
04-Feb-18 18:25 -10.354475 -77.933658 151 34938ft 486kts
04-Feb-18 18:26 -10.476139 -77.874209 151 34938ft 486kts
04-Feb-18 18:27 -10.597491 -77.814860 151 34939ft 486kts
04-Feb-18 18:28 -10.718830 -77.755464 151 34940ft 486kts
04-Feb-18 18:29 -10.840226 -77.695990 151 34939ft 486kts
04-Feb-18 18:30 -10.961488 -77.636523 151 34940ft 486kts
04-Feb-18 18:31 -11.083351 -77.576710 151 34941ft 487kts
04-Feb-18 18:32 -11.204425 -77.517233 151 34935ft 486kts
04-Feb-18 18:33 -11.326135 -77.457608 151 34936ft 487kts
04-Feb-18 18:34 -11.447820 -77.398055 151 34937ft 487kts
04-Feb-18 18:35 -11.568893 -77.338740 151 34941ft 487kts
04-Feb-18 18:36 -11.690329 -77.279195 151 34941ft 487kts
04-Feb-18 18:37 -11.812299 -77.219332 151 34942ft 486kts
04-Feb-18 18:38 -11.933584 -77.159746 151 34941ft 486kts
04-Feb-18 18:39 -12.059130 -77.109795 162 34949ft 491kts
04-Feb-18 18:40 -12.190219 -77.074462 162 34936ft 491kts
04-Feb-18 18:41 -12.322101 -77.039221 162 34938ft 491kts
04-Feb-18 18:42 -12.453320 -77.004147 162 34938ft 487kts
04-Feb-18 18:43 -12.583776 -76.969244 162 34939ft 484kts
04-Feb-18 18:44 -12.713512 -76.934496 162 34939ft 482kts
04-Feb-18 18:45 -12.842676 -76.899863 163 34939ft 479kts
04-Feb-18 18:46 -12.970869 -76.865456 163 34939ft 477kts
04-Feb-18 18:48 -13.099739 -76.830830 162 34942ft 488kts
04-Feb-18 18:49 -13.231755 -76.795323 162 34933ft 490kts
04-Feb-18 18:50 -13.363257 -76.759910 162 34937ft 490kts
04-Feb-18 18:51 -13.494788 -76.724451 162 34938ft 490kts
04-Feb-18 18:52 -13.626095 -76.689011 162 34938ft 490kts
04-Feb-18 18:53 -13.757954 -76.653381 162 34939ft 490kts
04-Feb-18 18:54 -13.888932 -76.617949 162 34967ft 490kts
04-Feb-18 18:55 -14.020571 -76.582292 162 34967ft 490kts
04-Feb-18 18:56 -14.152049 -76.546639 162 34961ft 490kts
04-Feb-18 18:57 -14.283522 -76.510945 162 34962ft 490kts
04-Feb-18 18:58 -14.414925 -76.475230 162 34963ft 490kts
04-Feb-18 18:59 -14.546134 -76.439523 162 34963ft 490kts
04-Feb-18 19:00 -14.677443 -76.403746 162 34964ft 490kts
04-Feb-18 19:01 -14.808922 -76.367878 162 34965ft 490kts
04-Feb-18 19:02 -14.939960 -76.332087 162 34970ft 490kts
04-Feb-18 19:03 -15.071692 -76.296062 162 35568ft 493kts
04-Feb-18 19:04 -15.203038 -76.260094 162 36973ft 490kts
04-Feb-18 19:05 -15.334008 -76.224187 162 36962ft 486kts
04-Feb-18 19:06 -15.464846 -76.188263 162 36967ft 487kts
04-Feb-18 19:07 -15.595172 -76.152437 162 36967ft 487kts
04-Feb-18 19:08 -15.726115 -76.116393 162 36968ft 487kts
04-Feb-18 19:09 -15.856436 -76.080473 162 36968ft 487kts
04-Feb-18 19:10 -15.987112 -76.044406 162 36969ft 487kts
04-Feb-18 19:10 -16.095904 -76.014343 162 36970ft 487kts
04-Feb-18 19:12 -16.248592 -75.972090 162 36964ft 487kts
04-Feb-18 19:13 -16.378945 -75.935966 162 36965ft 487kts
04-Feb-18 19:13 -16.488034 -75.905695 162 36965ft 487kts
04-Feb-18 19:14 -16.618303 -75.869501 162 36966ft 487kts
04-Feb-18 19:16 -16.770637 -75.827111 162 36967ft 487kts
04-Feb-18 19:17 -16.901521 -75.790634 162 36967ft 487kts
04-Feb-18 19:17 -17.009969 -75.760369 162 36968ft 488kts
04-Feb-18 19:18 -17.140919 -75.723777 162 36961ft 490kts
04-Feb-18 19:19 -17.272112 -75.687068 162 36963ft 489kts
04-Feb-18 19:21 -17.425157 -75.644172 162 36964ft 490kts
04-Feb-18 19:21 -17.534828 -75.613387 162 36964ft 490kts
04-Feb-18 19:22 -17.665627 -75.576619 162 36974ft 489kts
04-Feb-18 19:23 -17.796967 -75.539644 162 37054ft 490kts
04-Feb-18 19:24 -17.927984 -75.502702 162 37112ft 490kts
04-Feb-18 19:25 -18.059211 -75.465646 162 37171ft 490kts
04-Feb-18 19:26 -18.190110 -75.428631 162 37291ft 490kts
04-Feb-18 19:27 -18.321527 -75.391408 162 37339ft 490kts
04-Feb-18 19:28 -18.452316 -75.352632 161 37341ft 490kts
04-Feb-18 19:29 -18.582924 -75.313373 161 37345ft 489kts
04-Feb-18 19:30 -18.713605 -75.274036 161 37347ft 489kts
04-Feb-18 19:31 -18.843892 -75.234755 161 37347ft 489kts
04-Feb-18 19:32 -18.974501 -75.195307 161 37348ft 491kts
04-Feb-18 19:33 -19.103005 -75.156439 161 37349ft 493kts
04-Feb-18 19:34 -19.234667 -75.116548 161 37343ft 492kts
04-Feb-18 19:35 -19.365836 -75.076740 161 37343ft 491kts
04-Feb-18 19:36 -19.496615 -75.036984 161 37344ft 490kts
04-Feb-18 19:37 -19.626961 -74.997293 161 37345ft 489kts
04-Feb-18 19:38 -19.756842 -74.957677 161 37261ft 488kts
04-Feb-18 19:39 -19.886802 -74.917970 161 37046ft 485kts
04-Feb-18 19:40 -20.015947 -74.878443 162 36996ft 485kts
04-Feb-18 19:41 -20.145303 -74.838787 162 36990ft 485kts
04-Feb-18 19:42 -20.274562 -74.799092 162 36991ft 485kts
04-Feb-18 19:43 -20.403725 -74.759356 162 36992ft 485kts
04-Feb-18 19:44 -20.532868 -74.719556 162 36992ft 485kts
04-Feb-18 19:45 -20.662269 -74.679606 162 36993ft 485kts
04-Feb-18 19:46 -20.791373 -74.639677 162 36993ft 485kts
04-Feb-18 19:47 -20.920680 -74.599614 162 36994ft 485kts
04-Feb-18 19:48 -21.049630 -74.559583 162 36995ft 486kts
04-Feb-18 19:49 -21.179448 -74.519225 162 36990ft 487kts
04-Feb-18 19:50 -21.308987 -74.478869 162 36991ft 487kts
04-Feb-18 19:51 -21.438777 -74.438357 162 36991ft 487kts
04-Feb-18 19:52 -21.568427 -74.397812 162 36992ft 487kts
04-Feb-18 19:53 -21.697895 -74.357249 162 37007ft 487kts
04-Feb-18 19:54 -21.827435 -74.316592 162 37022ft 487kts
04-Feb-18 19:55 -21.957305 -74.275751 162 37023ft 487kts
04-Feb-18 19:56 -22.086705 -74.234981 162 37023ft 487kts
04-Feb-18 19:57 -22.216433 -74.194025 162 37019ft 487kts
04-Feb-18 19:58 -22.346049 -74.153029 162 37019ft 487kts
04-Feb-18 19:59 -22.475845 -74.111897 162 37020ft 487kts
04-Feb-18 20:00 -22.605281 -74.070798 162 37020ft 487kts
04-Feb-18 20:01 -22.735112 -74.029493 162 37021ft 487kts
04-Feb-18 20:02 -22.864430 -73.988269 162 37022ft 487kts
04-Feb-18 20:03 -22.994136 -73.946822 163 37022ft 485kts
04-Feb-18 20:04 -23.122317 -73.905811 163 37019ft 483kts
04-Feb-18 20:05 -23.250719 -73.864639 163 37019ft 483kts
04-Feb-18 20:06 -23.379581 -73.823231 163 37020ft 483kts
04-Feb-18 20:07 -23.507821 -73.781940 163 37020ft 483kts
04-Feb-18 20:08 -23.636377 -73.740462 163 37020ft 483kts
04-Feb-18 20:09 -23.764618 -73.699001 163 37021ft 483kts
04-Feb-18 20:10 -23.893123 -73.657368 163 37021ft 483kts
04-Feb-18 20:11 -24.021874 -73.615575 163 37022ft 483kts
04-Feb-18 20:12 -24.150114 -73.573961 163 37018ft 483kts
04-Feb-18 20:13 -24.278620 -73.532171 163 37019ft 483kts
04-Feb-18 20:14 -24.407013 -73.490327 163 37020ft 483kts
04-Feb-18 20:15 -24.535488 -73.448366 163 37020ft 483kts
04-Feb-18 20:16 -24.663513 -73.406462 163 37021ft 483kts
04-Feb-18 20:17 -24.792108 -73.364282 163 37021ft 483kts
04-Feb-18 20:18 -24.920367 -73.322125 163 37021ft 483kts
04-Feb-18 20:19 -25.048946 -73.279769 163 37027ft 485kts
04-Feb-18 20:20 -25.178378 -73.237034 163 37029ft 488kts
04-Feb-18 20:21 -25.307700 -73.194243 163 37046ft 487kts
04-Feb-18 20:22 -25.437423 -73.151225 163 37046ft 487kts
04-Feb-18 20:23 -25.567089 -73.108128 163 37047ft 487kts
04-Feb-18 20:24 -25.696440 -73.065039 163 37048ft 487kts
04-Feb-18 20:25 -25.825506 -73.021947 162 37049ft 487kts
04-Feb-18 20:26 -25.955111 -72.978574 163 37050ft 487kts
04-Feb-18 20:27 -26.084297 -72.935244 163 37048ft 486kts
04-Feb-18 20:28 -26.212838 -72.892031 163 37047ft 486kts
04-Feb-18 20:29 -26.342202 -72.848441 162 37046ft 486kts
04-Feb-18 20:30 -26.471233 -72.804859 162 37047ft 487kts
04-Feb-18 20:31 -26.600556 -72.761079 162 37045ft 487kts
04-Feb-18 20:32 -26.729423 -72.717341 162 37048ft 486kts
04-Feb-18 20:33 -26.858562 -72.673413 163 37046ft 487kts
04-Feb-18 20:34 -26.988086 -72.629246 163 37050ft 491kts
04-Feb-18 20:35 -27.118428 -72.584699 163 37046ft 493kts
04-Feb-18 20:36 -27.249053 -72.539951 163 37046ft 492kts
04-Feb-18 20:37 -27.379685 -72.495081 163 37048ft 493kts
04-Feb-18 20:38 -27.510325 -72.450099 163 37048ft 493kts
04-Feb-18 20:39 -27.641370 -72.405014 163 37049ft 493kts
04-Feb-18 20:40 -27.771863 -72.360032 163 37050ft 493kts
04-Feb-18 20:41 -27.902063 -72.315043 163 37049ft 492kts
04-Feb-18 20:42 -28.032425 -72.269882 163 37049ft 493kts
04-Feb-18 20:43 -28.163010 -72.224525 163 37044ft 492kts
04-Feb-18 20:44 -28.293712 -72.179013 163 37045ft 493kts
04-Feb-18 20:45 -28.424083 -72.133500 163 37031ft 493kts
04-Feb-18 20:46 -28.554605 -72.087725 163 37020ft 492kts
04-Feb-18 20:47 -28.685362 -72.041614 163 37021ft 493kts
04-Feb-18 20:48 -28.815708 -71.995530 163 37022ft 493kts
04-Feb-18 20:49 -28.946392 -71.949202 163 37023ft 493kts
04-Feb-18 20:50 -29.076666 -71.902894 163 37023ft 492kts
04-Feb-18 20:51 -29.204706 -71.857271 163 37019ft 491kts
04-Feb-18 20:52 -29.334777 -71.810798 163 37019ft 491kts
04-Feb-18 20:53 -29.465067 -71.764110 164 37025ft 496kts
04-Feb-18 20:54 -29.596311 -71.717426 164 37021ft 495kts
04-Feb-18 20:55 -29.727460 -71.670679 164 37023ft 495kts
04-Feb-18 20:56 -29.858581 -71.623812 164 37024ft 495kts
04-Feb-18 20:57 -29.989948 -71.576727 164 37024ft 495kts
04-Feb-18 20:58 -30.120444 -71.529826 164 37021ft 495kts
04-Feb-18 20:59 -30.251668 -71.482538 164 37021ft 495kts
04-Feb-18 21:01 -30.381224 -71.430208 161 37022ft 496kts
04-Feb-18 21:02 -30.510658 -71.376424 161 37023ft 495kts
04-Feb-18 21:03 -30.639665 -71.322690 161 37019ft 496kts
04-Feb-18 21:04 -30.769185 -71.268591 161 37020ft 496kts
04-Feb-18 21:05 -30.898261 -71.214522 161 37021ft 496kts
04-Feb-18 21:06 -31.027195 -71.160354 161 37022ft 493kts
04-Feb-18 21:07 -31.153720 -71.107049 161 36925ft 493kts
04-Feb-18 21:08 -31.279877 -71.053742 161 35554ft 474kts
04-Feb-18 21:09 -31.404136 -71.001107 161 33870ft 482kts
04-Feb-18 21:10 -31.530704 -70.947346 160 31249ft 491kts
04-Feb-18 21:11 -31.657786 -70.893186 159 28474ft 499kts
04-Feb-18 21:12 -31.779656 -70.853803 176 23966ft 450kts
04-Feb-18 21:13 -31.902129 -70.847838 177 23259ft 438kts
04-Feb-18 21:14 -32.012232 -70.843807 177 21999ft 428kts
04-Feb-18 21:15 -32.122851 -70.839848 177 20443ft 417kts
04-Feb-18 21:16 -32.234762 -70.835841 176 18752ft 409kts
04-Feb-18 21:17 -32.322999 -70.832668 176 17474ft 377kts
04-Feb-18 21:18 -32.380473 -70.830605 176 16662ft 374kts
04-Feb-18 21:19 -32.479741 -70.827043 176 15024ft 341kts
04-Feb-18 21:20 -32.571594 -70.823717 176 13649ft 330kts
04-Feb-18 21:21 -32.660266 -70.820511 176 12630ft 317kts
04-Feb-18 21:22 -32.739108 -70.817663 176 12027ft 270kts
04-Feb-18 21:23 -32.815400 -70.814887 176 11009ft 273kts
04-Feb-18 21:24 -32.892712 -70.812066 176 9808ft 284kts
04-Feb-18 21:25 -32.965171 -70.817869 185 9080ft 276kts
04-Feb-18 21:26 -33.026642 -70.822531 176 7650ft 255kts
04-Feb-18 21:26 -33.084720 -70.819496 175 7184ft 253kts
04-Feb-18 21:28 -33.161793 -70.815170 175 5794ft 240kts
04-Feb-18 21:29 -33.219853 -70.812021 175 4634ft 191kts
04-Feb-18 21:29 -33.262031 -70.809723 175 3795ft 170kts
04-Feb-18 21:30 -33.304525 -70.807402 175 2856ft 146kts
04-Feb-18 21:31 -33.344400 -70.805196 175 2125ft 144kts
04-Feb-18 21:33 -33.385367 -70.803002 176 1566ft 55kts
04-Feb-18 21:33 -33.393846 -70.801578 147 1566ft 32kts
04-Feb-18 21:34 -33.395229 -70.797623 88 1566ft 14kts
04-Feb-18 21:35 -33.395453 -70.795346 180 1566ft 5kts
04-Feb-18 21:36 -33.395900 -70.795344 179 1566ft 0kts
04-Feb-18 21:37 -33.395900 -70.795344 179 1566ft 0kts
04-Feb-18 21:38 -33.395900 -70.795344 179 1566ft 0kts
04-Feb-18 21:39 -33.395900 -70.795344 179 1566ft 0kts

Navigation Log

Ident Type
Flight plan parsing failed, navigation log unavailable